createdAt,value
2018-04-24T00:00:07.414Z,61.12
2018-04-24T00:05:08.735Z,61.66
2018-04-24T00:10:10.080Z,61.78
2018-04-24T00:15:11.410Z,61.52
2018-04-24T00:20:12.884Z,61.30
2018-04-24T00:25:14.207Z,61.07
2018-04-24T00:30:15.519Z,61.11
2018-04-24T00:35:17.626Z,61.28
2018-04-24T00:40:19.686Z,61.11
2018-04-24T00:45:20.994Z,60.82
2018-04-24T00:50:22.335Z,60.88
2018-04-24T00:55:23.682Z,60.90
2018-04-24T01:00:25.002Z,60.73
2018-04-24T01:05:27.088Z,60.89
2018-04-24T01:10:29.156Z,60.85
2018-04-24T01:15:30.480Z,61.06
2018-04-24T01:20:31.795Z,61.26
2018-04-24T01:25:33.115Z,61.11
2018-04-24T01:30:34.446Z,61.12
2018-04-24T01:35:35.793Z,61.06
2018-04-24T01:40:38.478Z,60.88
2018-04-24T01:45:40.552Z,60.42
2018-04-24T01:50:41.854Z,60.07
2018-04-24T01:55:43.207Z,59.70
2018-04-24T02:00:44.534Z,59.30
2018-04-24T02:05:45.881Z,59.38
2018-04-24T02:10:47.207Z,59.57
2018-04-24T02:15:48.522Z,60.38
2018-04-24T02:20:50.604Z,60.67
2018-04-24T02:25:51.937Z,60.73
2018-04-24T02:30:53.259Z,60.34
2018-04-24T02:35:55.308Z,60.69
2018-04-24T02:40:57.380Z,60.70
2018-04-24T02:45:58.735Z,60.51
2018-04-24T02:51:00.087Z,60.01
2018-04-24T02:56:02.167Z,60.34
2018-04-24T03:01:03.514Z,60.72
2018-04-24T03:06:04.835Z,60.49
2018-04-24T03:11:06.170Z,60.54
2018-04-24T03:16:08.282Z,59.99
2018-04-24T03:21:10.360Z,59.76
2018-04-24T03:26:11.691Z,60.05
2018-04-24T03:31:13.022Z,60.20
2018-04-24T03:36:14.366Z,60.06
2018-04-24T03:41:15.794Z,60.02
2018-04-24T03:46:17.135Z,60.42
2018-04-24T03:51:19.225Z,61.33
2018-04-24T03:56:20.570Z,61.71
2018-04-24T04:01:21.879Z,61.90
2018-04-24T04:06:23.222Z,62.16
2018-04-24T04:11:24.571Z,62.19
2018-04-24T04:16:25.910Z,62.28
2018-04-24T04:21:45.682Z,62.05
2018-04-24T04:26:46.994Z,62.11
2018-04-24T04:31:48.302Z,62.06
2018-04-24T04:36:49.630Z,61.87
2018-04-24T04:41:50.947Z,61.23
2018-04-24T04:46:52.279Z,61.27
2018-04-24T04:51:53.572Z,60.73
2018-04-24T04:56:54.894Z,60.93
2018-04-24T05:01:56.274Z,60.65
2018-04-24T05:06:57.611Z,60.12
2018-04-24T05:11:58.976Z,58.87
2018-04-24T05:17:00.267Z,58.61
2018-04-24T05:22:01.636Z,58.38
2018-04-24T05:27:02.988Z,58.40
2018-04-24T05:32:04.305Z,58.64
2018-04-24T05:37:05.631Z,57.93
2018-04-24T05:42:06.936Z,57.69
2018-04-24T05:47:08.978Z,57.38
2018-04-24T05:52:10.291Z,57.59
2018-04-24T05:57:11.619Z,57.29
2018-04-24T06:02:12.970Z,58.07
2018-04-24T06:07:14.290Z,59.31
2018-04-24T06:12:15.602Z,59.36
2018-04-24T06:17:17.658Z,59.74
2018-04-24T06:22:18.993Z,58.26
2018-04-24T06:27:20.323Z,57.87
2018-04-24T06:32:21.636Z,57.46
2018-04-24T06:37:22.962Z,58.64
2018-04-24T06:42:25.023Z,58.59
2018-04-24T06:47:26.368Z,59.45
2018-04-24T06:52:27.715Z,58.85
2018-04-24T06:57:29.052Z,58.70
2018-04-24T07:02:30.387Z,56.82
2018-04-24T07:07:31.710Z,57.00
2018-04-24T07:12:33.783Z,57.17
2018-04-24T07:17:35.099Z,58.53
2018-04-24T07:22:37.150Z,57.43
2018-04-24T07:27:38.470Z,57.61
2018-04-24T07:32:39.798Z,58.52
2018-04-24T07:37:41.888Z,58.41
2018-04-24T07:42:43.222Z,60.70
2018-04-24T07:47:44.549Z,61.90
2018-04-24T07:52:45.864Z,61.12
2018-04-24T07:57:47.947Z,60.20
2018-04-24T08:02:49.301Z,60.10
2018-04-24T08:07:50.617Z,60.10
2018-04-24T08:12:51.950Z,59.94
2018-04-24T08:17:54.826Z,60.48
2018-04-24T08:22:56.222Z,58.84
2018-04-24T08:27:57.494Z,59.18
2018-04-24T08:32:58.848Z,58.56
2018-04-24T08:38:00.190Z,58.87
2018-04-24T08:43:01.520Z,58.72
2018-04-24T08:48:03.637Z,57.29
2018-04-24T08:53:04.957Z,55.68
2018-04-24T08:58:06.274Z,56.12
2018-04-24T09:03:07.667Z,59.14
2018-04-24T09:08:09.016Z,60.21
2018-04-24T09:13:10.345Z,61.70
2018-04-24T09:18:11.665Z,63.30
2018-04-24T09:23:13.024Z,61.91
2018-04-24T09:28:14.377Z,62.24
2018-04-24T09:33:15.722Z,61.02
2018-04-24T09:38:17.792Z,61.89
2018-04-24T09:43:19.126Z,61.62
2018-04-24T09:48:21.183Z,61.16
2018-04-24T09:53:22.528Z,62.26
2018-04-24T09:58:24.601Z,61.73
2018-04-24T10:03:25.935Z,61.59
2018-04-24T10:08:27.278Z,61.35
2018-04-24T10:13:28.630Z,60.89
2018-04-24T10:18:29.954Z,60.21
2018-04-24T10:23:31.273Z,59.82
2018-04-24T10:28:32.596Z,59.57
2018-04-24T10:33:33.951Z,57.59
2018-04-24T10:38:35.286Z,55.06
2018-04-24T10:43:36.716Z,54.26
2018-04-24T10:48:38.025Z,55.33
2018-04-24T10:53:40.073Z,55.83
2018-04-24T10:58:41.419Z,55.76
2018-04-24T11:03:43.494Z,56.91
2018-04-24T11:08:44.819Z,57.82
2018-04-24T11:13:46.895Z,56.87
2018-04-24T11:18:48.218Z,56.58
2018-04-24T11:23:50.280Z,57.60
2018-04-24T11:28:51.673Z,54.63
2018-04-24T11:33:53.008Z,53.31
2018-04-24T11:38:55.084Z,53.36
2018-04-24T11:43:56.422Z,54.69
2018-04-24T11:48:57.769Z,54.46
2018-04-24T11:53:59.094Z,54.75
2018-04-24T11:59:00.414Z,56.00
2018-04-24T12:04:01.728Z,56.76
2018-04-24T12:09:03.111Z,56.90
2018-04-24T12:14:04.474Z,55.92
2018-04-24T12:19:05.822Z,55.12
2018-04-24T12:24:07.878Z,54.16
2018-04-24T12:29:09.224Z,52.63
2018-04-24T12:34:11.283Z,52.08
2018-04-24T12:39:12.629Z,51.49
2018-04-24T12:44:13.965Z,52.74
2018-04-24T12:49:15.323Z,54.53
2018-04-24T12:54:16.741Z,54.68
2018-04-24T12:59:19.133Z,53.79
2018-04-24T13:04:21.324Z,52.01
2018-04-24T13:09:22.692Z,50.57
2018-04-24T13:14:24.013Z,50.04
2018-04-24T13:19:25.365Z,50.23
2018-04-24T13:24:26.705Z,50.90
2018-04-24T13:29:28.030Z,52.24
2018-04-24T13:34:29.367Z,53.37
2018-04-24T13:39:30.698Z,54.47
2018-04-24T13:44:32.015Z,54.86
2018-04-24T13:49:33.355Z,55.70
2018-04-24T13:54:34.787Z,56.48
2018-04-24T13:59:36.119Z,56.18
2018-04-24T14:04:37.460Z,56.89
2018-04-24T14:09:38.782Z,56.81
2018-04-24T14:14:40.862Z,56.46
2018-04-24T14:19:42.181Z,55.26
2018-04-24T14:24:44.239Z,55.48
2018-04-24T14:29:45.555Z,55.65
2018-04-24T14:34:46.921Z,55.97
2018-04-24T14:39:48.250Z,55.57
2018-04-24T14:44:50.339Z,56.46
2018-04-24T14:49:51.675Z,55.65
2018-04-24T14:54:53.035Z,55.20
2018-04-24T14:59:55.090Z,54.51
2018-04-24T15:04:56.415Z,53.67
2018-04-24T15:09:57.735Z,53.06
2018-04-24T15:14:59.083Z,51.82
2018-04-24T15:20:00.400Z,50.73
2018-04-24T15:25:01.734Z,51.17
2018-04-24T15:30:03.063Z,51.72
2018-04-24T15:35:05.259Z,51.55
2018-04-24T15:40:06.543Z,52.24
2018-04-24T15:45:07.867Z,51.46
2018-04-24T15:50:09.204Z,52.52
2018-04-24T15:55:10.529Z,53.05
2018-04-24T16:00:12.603Z,53.73
2018-04-24T16:05:13.945Z,53.40
2018-04-24T16:10:15.338Z,52.11
2018-04-24T16:15:16.715Z,52.62
2018-04-24T16:20:18.827Z,52.71
2018-04-24T16:25:20.175Z,53.17
2018-04-24T16:30:21.502Z,53.15
2018-04-24T16:35:22.839Z,54.54
2018-04-24T16:40:24.199Z,55.43
2018-04-24T16:45:25.533Z,54.85
2018-04-24T16:50:26.878Z,54.87
2018-04-24T16:55:28.231Z,55.02
2018-04-24T17:00:30.334Z,55.27
2018-04-24T17:05:31.639Z,55.74
2018-04-24T17:10:33.031Z,55.06
2018-04-24T17:15:35.716Z,55.18
2018-04-24T17:20:37.884Z,54.95
2018-04-24T17:25:39.826Z,54.40
2018-04-24T17:30:41.205Z,55.10
2018-04-24T17:35:42.519Z,55.13
2018-04-24T17:40:43.883Z,54.68
2018-04-24T17:45:45.282Z,54.73
2018-04-24T17:50:46.686Z,54.80
2018-04-24T17:55:48.062Z,55.38
2018-04-24T18:00:49.427Z,55.64
2018-04-24T18:05:50.784Z,55.66
2018-04-24T18:10:52.150Z,55.76
2018-04-24T18:15:53.473Z,55.88
2018-04-24T18:20:55.526Z,55.81
2018-04-24T18:25:56.859Z,56.14
2018-04-24T18:30:59.029Z,56.93
2018-04-24T18:36:00.343Z,57.15
2018-04-24T18:41:01.676Z,57.43
2018-04-24T18:46:03.024Z,57.46
2018-04-24T18:51:04.566Z,57.29
2018-04-24T18:56:05.881Z,57.17
2018-04-24T19:01:07.267Z,56.97
2018-04-24T19:06:08.605Z,57.13
2018-04-24T19:11:10.765Z,56.68
2018-04-24T19:16:13.070Z,56.64
2018-04-24T19:21:15.408Z,56.12
2018-04-24T19:26:16.799Z,55.91
2018-04-24T19:31:24.445Z,55.83
2018-04-24T19:36:25.819Z,56.54
2018-04-24T19:41:34.112Z,56.48
2018-04-24T19:46:36.203Z,56.36
2018-04-24T19:51:37.530Z,56.60
2018-04-24T19:56:38.891Z,56.42
2018-04-24T20:01:41.014Z,56.66
2018-04-24T20:06:43.110Z,56.73
2018-04-24T20:11:45.196Z,56.94
2018-04-24T20:16:46.640Z,57.27
2018-04-24T20:21:47.978Z,57.85
2018-04-24T20:26:49.317Z,57.77
2018-04-24T20:31:50.676Z,58.21
2018-04-24T20:36:52.745Z,58.26
2018-04-24T20:41:54.068Z,58.96
2018-04-24T20:46:55.386Z,58.92
2018-04-24T20:51:56.822Z,58.71
2018-04-24T20:56:58.345Z,58.14
2018-04-24T21:02:00.482Z,58.07
2018-04-24T21:07:01.816Z,57.93
2018-04-24T21:12:03.170Z,57.76
2018-04-24T21:17:04.502Z,57.96
2018-04-24T21:22:05.997Z,58.19
2018-04-24T21:27:07.330Z,59.24
2018-04-24T21:32:08.639Z,60.14
2018-04-24T21:37:09.954Z,60.81
2018-04-24T21:42:11.285Z,61.02
2018-04-24T21:47:12.593Z,61.06
2018-04-24T21:52:13.916Z,60.99
2018-04-24T21:57:15.270Z,60.80
2018-04-24T22:02:16.607Z,61.09
2018-04-24T22:07:17.926Z,61.43
2018-04-24T22:12:20.002Z,61.58
2018-04-24T22:17:21.323Z,61.65
2018-04-24T22:22:23.394Z,61.73
2018-04-24T22:27:24.732Z,61.81
2018-04-24T22:32:26.785Z,61.62
2018-04-24T22:37:28.116Z,61.55
2018-04-24T22:42:30.175Z,61.63
2018-04-24T22:47:31.510Z,61.63
2018-04-24T22:52:33.558Z,61.76
2018-04-24T22:57:34.892Z,61.42
2018-04-24T23:02:36.210Z,62.33
2018-04-24T23:07:37.551Z,63.41
2018-04-24T23:12:57.345Z,64.30
2018-04-24T23:18:17.184Z,64.76
2018-04-24T23:23:18.511Z,64.83
2018-04-24T23:28:19.839Z,64.78
2018-04-24T23:33:21.174Z,64.49
2018-04-24T23:38:22.495Z,64.19
2018-04-24T23:43:24.571Z,64.19
2018-04-24T23:48:25.934Z,63.85
2018-04-24T23:53:27.273Z,63.62
2018-04-24T23:58:28.607Z,63.85
